CheckWX is a tool to help pilots better visualize weather data.  It is not intended as a substitute for an official pre-flight weather briefing.

13:05:42 UTC

GQPP TAF
Nouadhibou International Airport
Nouadhibou, Mauritania
TAF GQPP 201130Z 2012/2112 34012KT 7000 NSC PROB40TEMPO 2015/2019 35014G30KT 3000 BLSA

Aug-20@
12:00 UTC

Aug-20 @ 12:00 UTC

Aug-21@
12:00 UTC

Aug-21 @ 12:00 UTC

TAF GQPP 201130Z 2012/2112 34012KT 7000 NSC
Wind
  • 340° at 12 KTS
Cloud Levels
  • No significant clouds

Aug-20@
15:00 UTC

Aug-20 @ 15:00 UTC

Aug-20@
19:00 UTC

Aug-20 @ 19:00 UTC

PROB40TEMPO 2015/2019 35014G30KT 3000 BLSA

Temporary - 40% Likelihood

Temporary - 40% Likelihood during this time.

Wind
  • 350° at 14 KTS
  • {Gusting to 30 KTS
Conditions
Blowing Sand